Time;durP1;ratioP1;P1;durP2;ratioP2;P2;SDS_P1;SDS_P2;PMS_P1;PMS_P2;Temp;Humidity;BMP_temperature;BMP_pressure;BME280_temperature;BME280_humidity;BME280_pressure;Samples;Min_cycle;Max_cycle;Signal;HPM_P1;HPM_P2
2023/07/24 00:00:06;;;;;;;;;;;;;;;18.66;72.32;95440.88;5134037;28;956;-57
2023/07/24 00:02:32;;;;;;;;;;;;;;;18.77;72.10;95444.88;5133818;28;1996;-57
2023/07/24 00:04:58;;;;;;;;;;;;;;;18.66;72.56;95443.59;5133897;28;935;-57
2023/07/24 00:07:25;;;;;;;;;;;;;;;18.23;74.46;95444.69;5133771;28;973;-57
2023/07/24 00:09:51;;;;;;;;;;;;;;;17.78;75.77;95440.69;5133865;28;1131;-57
2023/07/24 00:12:16;;;;;;;;;;;;;;;17.79;76.27;95439.63;5133534;28;1095;-58
2023/07/24 00:14:42;;;;;;;;;;;;;;;18.07;74.80;95434.22;5133972;28;1051;-57
2023/07/24 00:17:08;;;;;;;;;;;;;;;18.17;74.38;95441.94;5133955;28;1063;-57
2023/07/24 00:19:35;;;;;;;;;;;;;;;18.16;74.86;95441.13;5134488;27;956;-57
2023/07/24 00:22:00;;;;;;;;;;;;;;;17.87;74.91;95432.25;5137445;27;1990;-57
2023/07/24 00:24:26;;;;;;;;;;;;;;;17.95;75.51;95444.78;5137649;27;973;-57
2023/07/24 00:26:52;;;;;;;;;;;;;;;18.17;74.41;95447.38;5137580;27;979;-57
2023/07/24 00:29:18;;;;;;;;;;;;;;;17.97;74.99;95437.28;5137370;27;1236;-57
2023/07/24 00:31:44;;;;;;;;;;;;;;;17.62;76.55;95444.53;5137374;27;1032;-57
2023/07/24 00:34:10;;;;;;;;;;;;;;;17.45;77.23;95431.28;5137282;27;991;-56
2023/07/24 00:36:37;;;;;;;;;;;;;;;17.67;76.38;95434.78;5137256;27;974;-57
2023/07/24 00:39:03;;;;;;;;;;;;;;;17.80;76.46;95434.03;5137213;27;1208;-56
2023/07/24 00:41:28;;;;;;;;;;;;;;;17.74;76.25;95438.38;5137061;27;1043;-56
2023/07/24 00:43:54;;;;;;;;;;;;;;;17.54;76.77;95437.41;5118932;27;1981;-57
2023/07/24 00:46:21;;;;;;;;;;;;;;;17.31;77.02;95430.38;5136951;27;1110;-57
2023/07/24 00:48:47;;;;;;;;;;;;;;;17.27;77.42;95436.38;5137027;27;1009;-57
2023/07/24 00:51:13;;;;;;;;;;;;;;;17.40;77.34;95438.34;5136837;27;1113;-56
2023/07/24 00:53:39;;;;;;;;;;;;;;;17.57;76.84;95434.31;5136871;27;1036;-57
2023/07/24 00:56:05;;;;;;;;;;;;;;;17.75;75.72;95433.78;5137048;27;957;-57
2023/07/24 00:58:32;;;;;;;;;;;;;;;17.81;75.95;95437.56;5136889;27;949;-57
2023/07/24 01:00:58;;;;;;;;;;;;;;;17.82;76.26;95439.25;5136745;27;1043;-57
2023/07/24 01:03:30;;;;;;;;;;;;;;;17.62;76.21;95434.53;5136655;27;1906;-57
2023/07/24 01:05:56;;;;;;;;;;;;;;;17.49;76.58;95429.91;5136720;27;1035;-57
2023/07/24 01:08:23;;;;;;;;;;;;;;;17.32;77.13;95421.25;5136767;27;947;-57
2023/07/24 01:10:49;;;;;;;;;;;;;;;17.38;77.40;95430.44;5136770;27;1028;-57
2023/07/24 01:13:18;;;;;;;;;;;;;;;17.69;75.41;95423.78;5136432;27;1178;-57
2023/07/24 01:15:47;;;;;;;;;;;;;;;17.67;76.15;95425.84;5136450;27;1036;-57
2023/07/24 01:18:16;;;;;;;;;;;;;;;17.65;76.29;95425.22;5136329;27;1040;-57
2023/07/24 01:20:47;;;;;;;;;;;;;;;17.50;76.82;95428.84;5136387;27;1031;-57
2023/07/24 01:23:32;;;;;;;;;;;;;;;17.50;77.00;95423.44;5136476;27;1906;-57
2023/07/24 01:25:58;;;;;;;;;;;;;;;17.62;75.87;95421.00;5136429;27;949;-57
2023/07/24 01:28:25;;;;;;;;;;;;;;;17.68;75.68;95425.66;5136089;27;1201;-57
2023/07/24 01:30:51;;;;;;;;;;;;;;;17.42;76.82;95420.06;5136217;27;1029;-57
2023/07/24 01:33:17;;;;;;;;;;;;;;;17.44;76.70;95421.53;5136019;27;1040;-57
2023/07/24 01:35:44;;;;;;;;;;;;;;;17.59;75.84;95418.72;5136202;27;988;-57
2023/07/24 01:38:13;;;;;;;;;;;;;;;17.89;74.91;95418.50;5136241;27;957;-57
2023/07/24 01:40:42;;;;;;;;;;;;;;;17.71;75.66;95424.41;5135978;27;1161;-57
2023/07/24 01:43:09;;;;;;;;;;;;;;;17.69;75.39;95434.59;5135889;27;1913;-57
2023/07/24 01:45:35;;;;;;;;;;;;;;;17.56;75.89;95427.22;5135721;27;1031;-57
2023/07/24 01:48:03;;;;;;;;;;;;;;;17.20;77.66;95430.09;5135759;27;1036;-57
2023/07/24 01:50:29;;;;;;;;;;;;;;;17.01;78.69;95426.19;5135723;27;1594;-57
2023/07/24 01:52:55;;;;;;;;;;;;;;;16.93;78.54;95430.69;5135718;27;1099;-57
2023/07/24 01:55:21;;;;;;;;;;;;;;;17.14;78.22;95429.81;5135570;27;1016;-57
2023/07/24 01:57:47;;;;;;;;;;;;;;;17.22;77.66;95425.31;5135536;27;1028;-57
2023/07/24 02:00:13;;;;;;;;;;;;;;;17.09;78.53;95429.59;5135443;27;1019;-57
2023/07/24 02:02:39;;;;;;;;;;;;;;;17.10;78.87;95435.81;5135481;27;1987;-57
2023/07/24 02:05:05;;;;;;;;;;;;;;;17.12;78.10;95433.75;5135538;27;1103;-57
2023/07/24 02:07:31;;;;;;;;;;;;;;;17.07;79.24;95428.91;5135564;27;1060;-57
2023/07/24 02:09:57;;;;;;;;;;;;;;;16.91;78.95;95423.81;5135534;27;1048;-57
2023/07/24 02:12:23;;;;;;;;;;;;;;;16.64;79.88;95419.97;5135185;27;1214;-57
2023/07/24 02:14:51;;;;;;;;;;;;;;;16.32;81.27;95425.66;5135303;27;1044;-57
2023/07/24 02:17:17;;;;;;;;;;;;;;;16.19;82.05;95420.13;5135435;27;1021;-57
2023/07/24 02:19:44;;;;;;;;;;;;;;;16.39;81.19;95423.88;5135404;27;1129;-57
2023/07/24 02:22:10;;;;;;;;;;;;;;;16.68;79.33;95418.56;5135251;27;1989;-56
2023/07/24 02:24:36;;;;;;;;;;;;;;;16.75;78.88;95428.41;5135282;27;1044;-57
2023/07/24 02:27:02;;;;;;;;;;;;;;;16.69;79.38;95418.34;5135276;27;1036;-56
2023/07/24 02:29:28;;;;;;;;;;;;;;;16.47;79.69;95422.09;5134895;27;1134;-57
2023/07/24 02:31:54;;;;;;;;;;;;;;;16.14;80.77;95423.41;5135255;27;1088;-57
2023/07/24 02:34:25;;;;;;;;;;;;;;;16.11;81.21;95414.84;5135074;27;961;-56
2023/07/24 02:36:52;;;;;;;;;;;;;;;16.03;81.84;95423.88;5134915;27;1024;-57
2023/07/24 02:39:18;;;;;;;;;;;;;;;16.23;80.47;95418.72;5134827;27;1056;-56
2023/07/24 02:41:45;;;;;;;;;;;;;;;16.68;78.45;95421.28;5134720;27;1910;-57
2023/07/24 02:44:11;;;;;;;;;;;;;;;16.84;77.91;95426.44;5134590;27;1000;-57
2023/07/24 02:46:37;;;;;;;;;;;;;;;16.76;78.20;95423.84;5134932;27;1048;-57
2023/07/24 02:49:03;;;;;;;;;;;;;;;16.66;79.05;95424.16;5134829;27;1071;-57
2023/07/24 02:51:29;;;;;;;;;;;;;;;16.54;79.17;95426.53;5134538;27;1124;-57
2023/07/24 02:53:55;;;;;;;;;;;;;;;16.34;79.84;95422.78;5134713;27;996;-56
2023/07/24 02:56:21;;;;;;;;;;;;;;;16.34;80.04;95428.19;5134396;27;1044;-57
2023/07/24 02:58:47;;;;;;;;;;;;;;;16.46;79.02;95434.75;5134314;27;1071;-57
2023/07/24 03:01:14;;;;;;;;;;;;;;;16.46;79.69;95433.91;5134655;27;968;-57
2023/07/24 03:03:40;;;;;;;;;;;;;;;16.44;80.14;95434.09;5134563;27;1909;-57
2023/07/24 03:06:06;;;;;;;;;;;;;;;16.23;80.20;95437.59;5134573;27;1047;-57
2023/07/24 03:08:33;;;;;;;;;;;;;;;16.03;80.77;95428.41;5134444;27;976;-56
2023/07/24 03:10:59;;;;;;;;;;;;;;;16.22;80.69;95430.53;5134445;27;1027;-56
2023/07/24 03:13:25;;;;;;;;;;;;;;;16.44;79.63;95427.88;5144827;27;1229;-57
2023/07/24 03:15:51;;;;;;;;;;;;;;;16.29;79.57;95433.31;5155082;27;1027;-57
2023/07/24 03:18:17;;;;;;;;;;;;;;;16.08;80.84;95436.78;5154954;27;1044;-57
2023/07/24 03:20:43;;;;;;;;;;;;;;;16.21;81.12;95431.56;5155005;27;1106;-57
2023/07/24 03:23:09;;;;;;;;;;;;;;;16.22;80.87;95437.78;5154945;27;1910;-57
2023/07/24 03:25:35;;;;;;;;;;;;;;;15.98;81.36;95442.47;5155012;27;1222;-57
2023/07/24 03:28:02;;;;;;;;;;;;;;;15.78;82.30;95434.09;5154876;27;1040;-57
2023/07/24 03:30:28;;;;;;;;;;;;;;;15.69;82.88;95438.75;5113619;28;1055;-57
2023/07/24 03:32:54;;;;;;;;;;;;;;;15.92;82.08;95435.97;5113837;28;983;-57
2023/07/24 03:35:20;;;;;;;;;;;;;;;16.20;81.22;95429.88;5113657;28;984;-57
2023/07/24 03:37:46;;;;;;;;;;;;;;;16.10;81.33;95430.16;5113896;28;1039;-56
2023/07/24 03:40:12;;;;;;;;;;;;;;;15.89;82.38;95430.09;5113491;28;1036;-56
2023/07/24 03:42:38;;;;;;;;;;;;;;;16.00;81.67;95422.38;5113394;28;1996;-56
2023/07/24 03:45:04;;;;;;;;;;;;;;;15.84;82.38;95432.53;5113710;28;891;-56
2023/07/24 03:47:30;;;;;;;;;;;;;;;15.84;83.16;95436.06;5113589;28;1103;-56
2023/07/24 03:49:56;;;;;;;;;;;;;;;15.97;82.61;95430.00;5113388;28;1091;-56
2023/07/24 03:52:22;;;;;;;;;;;;;;;16.32;80.76;95432.94;5113339;28;961;-56
2023/07/24 03:54:48;;;;;;;;;;;;;;;16.48;79.96;95427.28;5096573;28;1032;-56
2023/07/24 03:57:14;;;;;;;;;;;;;;;16.54;80.17;95428.38;5117184;28;1099;-56
2023/07/24 03:59:40;;;;;;;;;;;;;;;16.56;80.61;95435.28;5117602;28;1005;-56
2023/07/24 04:02:06;;;;;;;;;;;;;;;16.65;80.44;95433.28;5117418;28;1988;-56
2023/07/24 04:04:32;;;;;;;;;;;;;;;16.71;80.68;95437.06;5117348;28;1048;-56
2023/07/24 04:06:58;;;;;;;;;;;;;;;16.79;80.13;95442.38;5117271;28;1026;-56
2023/07/24 04:09:24;;;;;;;;;;;;;;;16.86;80.56;95440.56;5117142;28;965;-56
2023/07/24 04:11:50;;;;;;;;;;;;;;;16.85;80.99;95438.91;5117121;28;969;-56
2023/07/24 04:14:16;;;;;;;;;;;;;;;16.78;81.71;95448.78;5116844;28;1099;-56
2023/07/24 04:16:42;;;;;;;;;;;;;;;16.90;80.49;95447.28;5117056;28;902;-55
2023/07/24 04:19:08;;;;;;;;;;;;;;;17.27;78.73;95452.59;5117152;28;1049;-56
2023/07/24 04:21:34;;;;;;;;;;;;;;;17.63;77.30;95452.44;5117048;28;1527;-56
2023/07/24 04:24:00;;;;;;;;;;;;;;;17.66;78.78;95456.59;5116883;28;1913;-56
2023/07/24 04:26:26;;;;;;;;;;;;;;;17.65;79.36;95454.94;5116708;28;1024;-56
2023/07/24 04:28:53;;;;;;;;;;;;;;;17.88;78.09;95446.59;5123824;27;1170;-56
2023/07/24 04:31:19;;;;;;;;;;;;;;;18.10;75.86;95452.75;5137244;27;1043;-57
2023/07/24 04:33:45;;;;;;;;;;;;;;;18.24;74.76;95450.94;5137322;27;969;-57
2023/07/24 04:36:11;;;;;;;;;;;;;;;18.39;74.58;95451.63;5137106;27;1092;-57
2023/07/24 04:38:37;;;;;;;;;;;;;;;18.53;76.21;95458.78;5137161;27;1029;-57
2023/07/24 04:41:03;;;;;;;;;;;;;;;18.61;73.92;95462.31;5137015;27;1134;-56
2023/07/24 04:43:29;;;;;;;;;;;;;;;18.71;73.52;95446.53;5137151;27;1996;-57
2023/07/24 04:45:55;;;;;;;;;;;;;;;18.83;71.45;95447.59;5136995;27;1102;-57
2023/07/24 04:48:21;;;;;;;;;;;;;;;18.99;71.93;95441.00;5136881;27;1032;-57
2023/07/24 04:50:52;;;;;;;;;;;;;;;19.08;71.29;95450.59;5137049;27;971;-57
2023/07/24 04:53:18;;;;;;;;;;;;;;;19.21;71.30;95446.22;5136927;27;1055;-57
2023/07/24 04:55:45;;;;;;;;;;;;;;;19.25;69.09;95442.84;5136767;27;1055;-57
2023/07/24 04:58:11;;;;;;;;;;;;;;;19.54;68.86;95438.06;5136714;27;1040;-57
2023/07/24 05:00:37;;;;;;;;;;;;;;;19.73;67.37;95441.00;5136726;27;1027;-57
2023/07/24 05:03:03;;;;;;;;;;;;;;;19.92;66.50;95451.00;5136636;27;1914;-57
2023/07/24 05:05:29;;;;;;;;;;;;;;;19.88;64.63;95449.72;5136262;27;1028;-57
2023/07/24 05:07:55;;;;;;;;;;;;;;;19.67;65.42;95423.66;5136620;27;1097;-55
2023/07/24 05:10:20;;;;;;;;;;;;;;;20.04;65.51;95448.44;5136543;27;990;-57
2023/07/24 05:12:46;;;;;;;;;;;;;;;20.11;65.64;95449.28;5136414;27;1110;-57
2023/07/24 05:15:16;;;;;;;;;;;;;;;20.25;64.53;95447.34;5136710;27;1054;-56
2023/07/24 05:17:45;;;;;;;;;;;;;;;20.22;62.33;95445.91;5136631;27;984;-56
2023/07/24 05:20:11;;;;;;;;;;;;;;;20.29;63.40;95454.81;5136238;27;1028;-57
2023/07/24 05:22:37;;;;;;;;;;;;;;;20.48;62.89;95449.53;5136390;27;1993;-55
2023/07/24 05:25:03;;;;;;;;;;;;;;;20.55;58.39;95449.53;5136372;27;1060;-56
2023/07/24 05:27:29;;;;;;;;;;;;;;;20.81;58.61;95449.41;5136422;27;1189;-56
2023/07/24 05:29:55;;;;;;;;;;;;;;;20.91;60.16;95456.25;5136172;27;1181;-56
2023/07/24 05:32:21;;;;;;;;;;;;;;;20.84;58.58;95457.13;5136086;27;1090;-56
2023/07/24 05:34:47;;;;;;;;;;;;;;;20.96;56.75;95453.69;5136145;27;1032;-56
2023/07/24 05:37:13;;;;;;;;;;;;;;;21.15;54.62;95460.91;5136123;27;1010;-56
2023/07/24 05:39:39;;;;;;;;;;;;;;;21.10;58.00;95459.91;5136037;27;979;-55
2023/07/24 05:42:05;;;;;;;;;;;;;;;21.34;59.55;95452.81;5136150;27;1914;-55
2023/07/24 05:44:32;;;;;;;;;;;;;;;21.36;59.93;95447.97;5136006;27;1044;-56
2023/07/24 05:46:58;;;;;;;;;;;;;;;21.43;59.97;95456.94;5135871;27;1260;-56
2023/07/24 05:49:26;;;;;;;;;;;;;;;21.66;59.95;95455.50;5135907;27;953;-56
2023/07/24 05:51:53;;;;;;;;;;;;;;;21.88;59.91;95461.41;5135846;27;1006;-56
2023/07/24 05:54:19;;;;;;;;;;;;;;;21.91;59.98;95460.94;5135660;27;967;-56
2023/07/24 05:56:45;;;;;;;;;;;;;;;21.90;58.07;95462.81;5135925;27;1035;-56
2023/07/24 05:59:11;;;;;;;;;;;;;;;21.94;59.77;95457.75;5135761;27;999;-56
2023/07/24 06:01:37;;;;;;;;;;;;;;;22.13;58.44;95456.72;5135716;27;1041;-56
2023/07/24 06:04:03;;;;;;;;;;;;;;;22.07;55.95;95454.09;5135595;27;1988;-56
2023/07/24 06:06:29;;;;;;;;;;;;;;;22.02;56.90;95455.59;5135370;27;1032;-56
2023/07/24 06:08:55;;;;;;;;;;;;;;;22.33;58.15;95462.00;5135404;27;1085;-56
2023/07/24 06:11:22;;;;;;;;;;;;;;;22.55;55.93;95453.34;5135596;27;964;-56
2023/07/24 06:13:48;;;;;;;;;;;;;;;22.44;56.92;95460.38;5135207;27;1079;-56
2023/07/24 06:16:14;;;;;;;;;;;;;;;22.64;54.92;95454.69;5135220;27;1573;-55
2023/07/24 06:18:42;;;;;;;;;;;;;;;22.90;56.02;95442.59;5134691;27;1064;-56
2023/07/24 06:21:08;;;;;;;;;;;;;;;23.30;55.23;95446.69;5135282;27;1226;-56
2023/07/24 06:23:34;;;;;;;;;;;;;;;23.46;54.75;95450.59;5135065;27;1910;-56
2023/07/24 06:26:00;;;;;;;;;;;;;;;23.52;56.20;95447.78;5117109;27;949;-55
2023/07/24 06:28:26;;;;;;;;;;;;;;;23.41;56.40;95445.88;5134902;27;1212;-56
2023/07/24 06:30:53;;;;;;;;;;;;;;;23.33;54.62;95449.75;5135210;27;992;-56
2023/07/24 06:33:19;;;;;;;;;;;;;;;23.35;57.29;95436.72;5134947;27;1551;-56
2023/07/24 06:35:45;;;;;;;;;;;;;;;23.39;58.56;95443.38;5135034;27;1067;-56
2023/07/24 06:38:11;;;;;;;;;;;;;;;23.48;54.25;95441.13;5134775;27;933;-56
2023/07/24 06:40:37;;;;;;;;;;;;;;;23.77;54.90;95442.09;5134799;27;1102;-54
2023/07/24 06:43:03;;;;;;;;;;;;;;;24.23;53.12;95436.06;5134731;27;1906;-56
2023/07/24 06:45:29;;;;;;;;;;;;;;;24.39;54.15;95434.47;5134254;27;1071;-55
2023/07/24 06:47:55;;;;;;;;;;;;;;;24.40;54.05;95436.97;5134901;27;1052;-56
2023/07/24 06:50:21;;;;;;;;;;;;;;;24.42;55.82;95434.81;5134639;27;1040;-55
2023/07/24 06:52:47;;;;;;;;;;;;;;;24.63;56.19;95435.28;5134442;27;1044;-56
2023/07/24 06:55:13;;;;;;;;;;;;;;;24.91;53.88;95439.94;5115452;27;1095;-56
2023/07/24 06:57:39;;;;;;;;;;;;;;;25.09;53.04;95438.91;5134108;27;1106;-56
2023/07/24 07:00:07;;;;;;;;;;;;;;;25.23;52.33;95445.75;5134586;27;987;-56
2023/07/24 07:02:33;;;;;;;;;;;;;;;25.36;54.60;95427.34;5134290;27;1910;-56
2023/07/24 07:04:59;;;;;;;;;;;;;;;25.36;54.00;95424.63;5134395;27;965;-56
2023/07/24 07:07:25;;;;;;;;;;;;;;;25.45;50.49;95432.16;5134218;27;1128;-56
2023/07/24 07:09:51;;;;;;;;;;;;;;;25.35;51.46;95423.81;5134530;27;991;-55
2023/07/24 07:12:17;;;;;;;;;;;;;;;25.58;52.90;95421.97;5134187;27;1385;-56
2023/07/24 07:14:43;;;;;;;;;;;;;;;25.57;51.33;95423.06;5134425;27;1025;-56
2023/07/24 07:17:09;;;;;;;;;;;;;;;25.78;53.02;95418.72;5134318;28;999;-56
2023/07/24 07:19:36;;;;;;;;;;;;;;;25.96;50.53;95418.50;5134246;28;1188;-56
2023/07/24 07:22:02;;;;;;;;;;;;;;;26.12;50.08;95421.44;5133982;28;1959;-56
2023/07/24 07:24:27;;;;;;;;;;;;;;;26.10;48.16;95418.94;5134353;28;1052;-56
2023/07/24 07:26:53;;;;;;;;;;;;;;;26.39;47.25;95422.38;5134349;28;960;-55
2023/07/24 07:29:20;;;;;;;;;;;;;;;26.65;46.69;95422.72;5136310;27;1149;-56
2023/07/24 07:31:45;;;;;;;;;;;;;;;26.46;47.82;95423.03;5138355;27;1091;-56
2023/07/24 07:34:11;;;;;;;;;;;;;;;26.33;47.38;95395.97;5138312;27;995;-56
2023/07/24 07:36:37;;;;;;;;;;;;;;;26.39;44.71;95425.13;5138294;27;1060;-56
2023/07/24 07:39:03;;;;;;;;;;;;;;;26.48;46.37;95417.25;5138168;27;1123;-56
2023/07/24 07:41:29;;;;;;;;;;;;;;;26.60;45.07;95425.41;5120165;27;1044;-55
2023/07/24 07:43:56;;;;;;;;;;;;;;;26.87;44.55;95420.78;5138056;27;1909;-56
2023/07/24 07:46:22;;;;;;;;;;;;;;;26.95;46.61;95422.25;5138197;27;1019;-56
2023/07/24 07:48:49;;;;;;;;;;;;;;;27.03;44.96;95424.53;5138211;27;1005;-55
2023/07/24 07:51:15;;;;;;;;;;;;;;;27.09;43.78;95419.94;5137903;27;990;-56
2023/07/24 07:53:41;;;;;;;;;;;;;;;26.93;45.07;95407.94;5138307;27;1084;-56
2023/07/24 07:56:07;;;;;;;;;;;;;;;27.23;43.38;95417.59;5138091;27;1048;-55
2023/07/24 07:58:33;;;;;;;;;;;;;;;27.31;43.48;95408.09;5137855;27;1106;-56
2023/07/24 08:01:03;;;;;;;;;;;;;;;27.21;42.13;95415.09;5138000;27;972;-56
2023/07/24 08:03:29;;;;;;;;;;;;;;;27.40;42.89;95417.50;5137676;27;1997;-56
2023/07/24 08:05:59;;;;;;;;;;;;;;;27.65;43.44;95408.66;5137614;27;1110;-56
2023/07/24 08:08:25;;;;;;;;;;;;;;;27.75;41.78;95403.22;5137561;27;1106;-56
2023/07/24 08:10:51;;;;;;;;;;;;;;;27.99;42.10;95405.63;5137650;27;1032;-56
2023/07/24 08:13:17;;;;;;;;;;;;;;;28.13;42.70;95404.03;5137611;27;1092;-57
2023/07/24 08:15:43;;;;;;;;;;;;;;;28.42;42.99;95396.25;5137641;27;966;-56
2023/07/24 08:18:09;;;;;;;;;;;;;;;28.54;43.57;95390.53;5137533;27;1039;-56
2023/07/24 08:20:35;;;;;;;;;;;;;;;28.70;42.95;95391.41;5133553;27;1154;-56
2023/07/24 08:23:02;;;;;;;;;;;;;;;28.82;41.14;95391.19;5137243;27;1909;-56
2023/07/24 08:25:28;;;;;;;;;;;;;;;28.82;41.73;95388.44;5137392;27;1048;-56
2023/07/24 08:27:54;;;;;;;;;;;;;;;28.80;41.30;95390.66;5137590;27;1031;-55
2023/07/24 08:30:20;;;;;;;;;;;;;;;28.81;40.83;95392.28;5136978;27;1173;-56
2023/07/24 08:32:46;;;;;;;;;;;;;;;28.93;42.74;95384.63;5137310;27;1251;-57
2023/07/24 08:35:12;;;;;;;;;;;;;;;28.97;42.81;95382.97;5137118;27;977;-57
2023/07/24 08:37:38;;;;;;;;;;;;;;;29.04;42.08;95381.88;5137193;27;1975;-57
2023/07/24 08:40:04;;;;;;;;;;;;;;;29.19;42.59;95377.25;5136127;27;1048;-56
2023/07/24 08:42:31;;;;;;;;;;;;;;;29.28;43.16;95376.72;5136841;27;1906;-56
2023/07/24 08:44:58;;;;;;;;;;;;;;;29.49;42.56;95375.63;5136984;27;1091;-57
2023/07/24 08:47:24;;;;;;;;;;;;;;;29.54;42.87;95369.31;5136869;27;1083;-57
2023/07/24 08:49:53;;;;;;;;;;;;;;;29.65;40.49;95379.19;5136859;27;969;-56
2023/07/24 08:52:19;;;;;;;;;;;;;;;29.88;43.55;95368.72;5136735;27;999;-57
2023/07/24 08:54:45;;;;;;;;;;;;;;;30.10;43.82;95368.44;5137047;27;1039;-56
2023/07/24 08:57:12;;;;;;;;;;;;;;;30.02;41.29;95371.75;5136807;27;1072;-56
2023/07/24 08:59:38;;;;;;;;;;;;;;;29.92;43.36;95356.06;5136704;27;1122;-55
2023/07/24 09:02:05;;;;;;;;;;;;;;;29.93;41.57;95360.47;5136359;27;1990;-56
2023/07/24 09:04:31;;;;;;;;;;;;;;;30.00;41.95;95354.69;5136417;27;1098;-55
2023/07/24 09:06:58;;;;;;;;;;;;;;;30.04;41.97;95351.06;5136558;27;1047;-56
2023/07/24 09:09:29;;;;;;;;;;;;;;;30.18;41.99;95348.53;5136394;27;1051;-56
2023/07/24 09:11:55;;;;;;;;;;;;;;;30.29;43.25;95343.81;5136642;27;1093;-57
2023/07/24 09:14:21;;;;;;;;;;;;;;;30.42;42.73;95331.41;5136213;27;1199;-56
2023/07/24 09:16:47;;;;;;;;;;;;;;;30.46;40.03;95347.09;5136335;27;1035;-56
2023/07/24 09:19:17;;;;;;;;;;;;;;;30.59;42.60;95340.16;5136173;27;996;-57
2023/07/24 09:21:44;;;;;;;;;;;;;;;30.73;41.08;95343.09;5136484;27;1035;-56
2023/07/24 09:24:14;;;;;;;;;;;;;;;30.90;42.37;95327.00;5136273;27;1905;-56
2023/07/24 09:26:46;;;;;;;;;;;;;;;30.93;41.38;95325.63;5136180;27;1091;-57
2023/07/24 09:29:12;;;;;;;;;;;;;;;31.10;40.10;95325.25;5135955;27;1153;-57
2023/07/24 09:31:38;;;;;;;;;;;;;;;31.07;39.66;95334.09;5135525;27;1129;-59
2023/07/24 09:34:13;;;;;;;;;;;;;;;31.04;39.54;95321.69;5135649;27;970;-57
2023/07/24 09:36:39;;;;;;;;;;;;;;;31.10;39.15;95326.06;5135638;27;965;-57
2023/07/24 09:39:06;;;;;;;;;;;;;;;31.29;40.01;95323.44;5136104;27;977;-56
2023/07/24 09:41:32;;;;;;;;;;;;;;;31.57;40.19;95321.03;5133227;27;1320;-56
2023/07/24 09:43:58;;;;;;;;;;;;;;;31.78;40.38;95318.91;5135270;27;1914;-57
2023/07/24 09:46:24;;;;;;;;;;;;;;;32.01;38.29;95325.56;5135552;27;1016;-57
2023/07/24 09:48:50;;;;;;;;;;;;;;;32.10;39.89;95315.53;5135905;27;1118;-57
2023/07/24 09:51:16;;;;;;;;;;;;;;;32.17;39.67;95309.63;5135630;27;1133;-57
2023/07/24 09:54:00;;;;;;;;;;;;;;;32.24;39.98;95298.22;5134434;27;996;-57
2023/07/24 09:56:27;;;;;;;;;;;;;;;32.27;37.31;95305.91;5135245;27;1026;-57
2023/07/24 09:58:55;;;;;;;;;;;;;;;32.17;37.18;95311.59;5135217;27;1006;-57
2023/07/24 10:01:21;;;;;;;;;;;;;;;32.35;39.23;95298.94;5135666;27;1040;-57
2023/07/24 10:03:49;;;;;;;;;;;;;;;32.58;38.67;95291.75;5135362;27;1914;-57
2023/07/24 10:06:15;;;;;;;;;;;;;;;32.75;37.19;95299.53;5135512;27;969;-56
2023/07/24 10:08:42;;;;;;;;;;;;;;;32.81;36.71;95290.84;5135280;27;1096;-56
2023/07/24 10:11:09;;;;;;;;;;;;;;;32.90;37.49;95292.94;5135419;27;1253;-56
2023/07/24 10:13:36;;;;;;;;;;;;;;;32.75;39.11;95272.69;5116861;27;1051;-56
2023/07/24 10:16:05;;;;;;;;;;;;;;;32.75;38.92;95275.44;5135205;27;1068;-56
2023/07/24 10:18:31;;;;;;;;;;;;;;;32.78;36.85;95282.31;5135294;27;850;-56
2023/07/24 10:21:07;;;;;;;;;;;;;;;32.89;37.09;95281.03;5135051;27;951;-56
2023/07/24 10:23:37;;;;;;;;;;;;;;;32.99;40.42;95264.28;5134981;27;1995;-56
2023/07/24 10:26:04;;;;;;;;;;;;;;;32.75;38.72;95264.38;5132100;27;1137;-56
2023/07/24 10:28:40;;;;;;;;;;;;;;;32.67;37.25;95260.34;5134736;27;1055;-55
2023/07/24 10:31:18;;;;;;;;;;;;;;;32.73;35.78;95263.03;5135160;27;1055;-56
2023/07/24 10:33:45;;;;;;;;;;;;;;;33.07;35.45;95276.63;5134980;27;1051;-55
2023/07/24 10:36:13;;;;;;;;;;;;;;;33.13;36.13;95269.91;5134807;27;1007;-55
2023/07/24 10:38:40;;;;;;;;;;;;;;;32.95;34.57;95273.47;5134944;27;1196;-55
2023/07/24 10:41:07;;;;;;;;;;;;;;;32.74;35.21;95265.47;5134660;27;1043;-54
2023/07/24 10:43:47;;;;;;;;;;;;;;;32.66;35.72;95260.63;5134799;27;1905;-56
2023/07/24 10:46:13;;;;;;;;;;;;;;;32.68;35.70;95258.38;5134666;27;1025;-56
2023/07/24 10:49:00;;;;;;;;;;;;;;;32.73;36.25;95255.53;5116221;27;1041;-56
2023/07/24 10:51:26;;;;;;;;;;;;;;;33.07;35.23;95249.75;5134789;27;1063;-56
2023/07/24 10:53:53;;;;;;;;;;;;;;;33.05;37.78;95234.56;5134780;27;973;-55
2023/07/24 10:56:19;;;;;;;;;;;;;;;32.98;35.65;95242.44;5134561;27;1060;-57
2023/07/24 10:58:45;;;;;;;;;;;;;;;32.97;38.84;95224.16;5134188;27;1055;-56
2023/07/24 11:01:11;;;;;;;;;;;;;;;33.04;36.32;95221.84;5134234;27;1030;-57
2023/07/24 11:03:37;;;;;;;;;;;;;;;33.07;38.17;95221.25;5133821;27;1914;-56
2023/07/24 11:06:04;;;;;;;;;;;;;;;33.10;37.93;95214.25;5134149;27;948;-56
2023/07/24 11:08:31;;;;;;;;;;;;;;;33.20;34.68;95217.72;5133724;27;2003;-56
2023/07/24 11:10:58;;;;;;;;;;;;;;;33.19;35.69;95218.84;5133671;27;1019;-56
2023/07/24 11:13:25;;;;;;;;;;;;;;;33.15;38.10;95211.44;5134169;27;1090;-56
2023/07/24 11:15:53;;;;;;;;;;;;;;;33.25;36.42;95214.84;5134324;27;1060;-56
2023/07/24 11:18:26;;;;;;;;;;;;;;;33.34;38.69;95216.94;5134078;28;1099;-56
2023/07/24 11:20:55;;;;;;;;;;;;;;;33.31;35.27;95221.13;5131527;28;1159;-56
2023/07/24 11:23:22;;;;;;;;;;;;;;;33.27;35.88;95217.31;5134192;28;1913;-56
2023/07/24 11:25:52;;;;;;;;;;;;;;;33.29;38.32;95214.25;5134361;28;1037;-56
2023/07/24 11:28:18;;;;;;;;;;;;;;;33.00;37.63;95204.19;5134188;28;1812;-56
2023/07/24 11:30:44;;;;;;;;;;;;;;;33.00;36.64;95199.47;5133950;28;1151;-56
2023/07/24 11:33:11;;;;;;;;;;;;;;;33.19;35.22;95207.75;5133910;28;1107;-56
2023/07/24 11:35:40;;;;;;;;;;;;;;;33.29;34.27;95211.47;5134084;28;1052;-56
2023/07/24 11:38:08;;;;;;;;;;;;;;;33.31;32.09;95215.56;5134265;28;1047;-56
2023/07/24 11:40:38;;;;;;;;;;;;;;;33.37;32.36;95216.31;5133730;28;1164;-55
2023/07/24 11:43:04;;;;;;;;;;;;;;;33.43;33.68;95202.06;5133964;28;1917;-57
2023/07/24 11:48:53;;;;;;;;;;;;;;;33.76;33.54;95198.44;5131490;28;1317;-55
2023/07/24 11:51:19;;;;;;;;;;;;;;;33.76;33.75;95192.88;5133913;28;1261;-56
2023/07/24 11:53:45;;;;;;;;;;;;;;;33.68;34.02;95188.06;5133936;28;1225;-56
2023/07/24 11:56:14;;;;;;;;;;;;;;;33.71;33.21;95179.13;5133787;28;972;-56
2023/07/24 11:58:41;;;;;;;;;;;;;;;33.75;31.53;95177.38;5133596;28;1040;-56
2023/07/24 12:01:06;;;;;;;;;;;;;;;33.72;32.32;95184.34;5133867;28;1051;-56
2023/07/24 12:03:32;;;;;;;;;;;;;;;33.69;32.48;95178.59;5133714;28;1991;-56
2023/07/24 12:05:59;;;;;;;;;;;;;;;33.75;32.63;95174.59;5133853;28;1060;-56
2023/07/24 12:08:34;;;;;;;;;;;;;;;33.78;32.81;95180.34;5133361;28;1095;-56
2023/07/24 12:11:00;;;;;;;;;;;;;;;33.83;32.30;95176.66;5133719;28;1036;-56
2023/07/24 12:13:28;;;;;;;;;;;;;;;33.97;32.55;95179.44;5133652;28;1238;-56
2023/07/24 12:15:54;;;;;;;;;;;;;;;34.11;33.67;95182.16;5135222;27;987;-56
2023/07/24 12:18:20;;;;;;;;;;;;;;;34.12;31.88;95169.97;5137211;27;1098;-56
2023/07/24 12:20:47;;;;;;;;;;;;;;;34.09;31.77;95174.16;5137501;27;1036;-57
2023/07/24 12:23:13;;;;;;;;;;;;;;;34.10;31.75;95175.81;5137326;27;2016;-56
2023/07/24 12:25:39;;;;;;;;;;;;;;;34.16;32.59;95173.78;5137439;27;1055;-55
2023/07/24 12:28:05;;;;;;;;;;;;;;;34.22;31.55;95169.75;5137336;27;1165;-55
2023/07/24 12:30:31;;;;;;;;;;;;;;;34.14;31.65;95167.69;5137080;27;1059;-54
2023/07/24 12:32:58;;;;;;;;;;;;;;;34.12;31.97;95168.00;5137465;27;1032;-55
2023/07/24 12:35:24;;;;;;;;;;;;;;;34.22;32.73;95156.72;5137217;27;1284;-55
2023/07/24 12:37:50;;;;;;;;;;;;;;;34.32;30.80;95158.44;5137143;27;1161;-56
2023/07/24 12:40:15;;;;;;;;;;;;;;;34.39;31.08;95160.78;5136790;27;1418;-55
2023/07/24 12:42:41;;;;;;;;;;;;;;;34.29;31.29;95149.91;5137226;27;1988;-56
2023/07/24 12:45:08;;;;;;;;;;;;;;;34.20;30.62;95156.19;5137265;27;1060;-58
2023/07/24 12:47:34;;;;;;;;;;;;;;;34.33;31.36;95140.66;5137051;27;1044;-57
2023/07/24 12:50:00;;;;;;;;;;;;;;;34.38;30.58;95143.31;5136167;27;1297;-56
2023/07/24 12:52:26;;;;;;;;;;;;;;;34.31;30.77;95142.91;5136745;27;1167;-56
2023/07/24 12:54:52;;;;;;;;;;;;;;;34.20;31.05;95145.09;5136979;27;1095;-55
2023/07/24 12:57:18;;;;;;;;;;;;;;;34.19;31.83;95126.81;5137122;27;966;-55
2023/07/24 12:59:44;;;;;;;;;;;;;;;34.31;31.13;95126.25;5137060;27;1015;-55